Time;durP1;ratioP1;P1;durP2;ratioP2;P2;SDS_P1;SDS_P2;PMS_P1;PMS_P2;Temp;Humidity;BMP_temperature;BMP_pressure;BME280_temperature;BME280_humidity;BME280_pressure;Samples;Min_cycle;Max_cycle;Signal;HPM_P1;HPM_P2
2021/06/13 00:00:17;;;;;;;0.00;0.00;;;15.50;99.90;;;;;;5075942;28;20131;-57
2021/06/13 00:02:44;;;;;;;0.00;0.00;;;15.50;99.90;;;;;;5075476;28;20051;-58
2021/06/13 00:05:17;;;;;;;0.00;0.00;;;15.40;99.90;;;;;;5074976;28;20105;-58
2021/06/13 00:07:44;;;;;;;0.00;0.00;;;15.40;99.90;;;;;;5075984;28;20036;-58
2021/06/13 00:10:11;;;;;;;0.00;0.00;;;15.30;99.90;;;;;;5074800;28;20043;-58
2021/06/13 00:12:37;;;;;;;0.00;0.00;;;15.30;99.90;;;;;;5074077;28;20158;-58
2021/06/13 00:15:09;;;;;;;0.00;0.00;;;15.30;99.90;;;;;;5058297;28;20035;-58
2021/06/13 00:17:37;;;;;;;0.00;0.00;;;15.20;99.90;;;;;;5075046;28;20036;-58
2021/06/13 00:20:11;;;;;;;0.00;0.00;;;15.30;99.90;;;;;;5074308;28;20101;-58
2021/06/13 00:22:37;;;;;;;0.00;0.00;;;15.20;99.90;;;;;;5074676;28;20035;-58
2021/06/13 00:25:05;;;;;;;0.00;0.00;;;15.20;99.90;;;;;;5059963;28;20050;-58
2021/06/13 00:27:33;;;;;;;0.00;0.00;;;15.10;99.90;;;;;;5074043;28;20028;-58
2021/06/13 00:29:59;;;;;;;0.00;0.00;;;15.10;99.90;;;;;;5073864;28;20025;-58
2021/06/13 00:32:24;;;;;;;0.00;0.00;;;15.10;99.90;;;;;;5074153;28;20586;-58
2021/06/13 00:34:50;;;;;;;0.00;0.00;;;15.00;99.90;;;;;;5074403;28;20032;-58
2021/06/13 00:37:15;;;;;;;0.00;0.00;;;15.00;99.90;;;;;;5073091;28;20058;-58
2021/06/13 00:39:41;;;;;;;0.00;0.00;;;15.00;99.90;;;;;;5074808;28;20032;-59
2021/06/13 00:42:07;;;;;;;0.00;0.00;;;14.90;99.90;;;;;;5073770;28;20024;-58
2021/06/13 00:44:33;;;;;;;0.00;0.00;;;14.90;99.90;;;;;;5073625;28;20460;-58
2021/06/13 00:46:58;;;;;;;0.00;0.00;;;14.80;99.90;;;;;;5074639;28;20135;-58
2021/06/13 00:49:24;;;;;;;0.00;0.00;;;14.70;99.90;;;;;;5073328;28;20855;-58
2021/06/13 00:51:51;;;;;;;0.00;0.00;;;14.70;99.90;;;;;;5074726;28;21913;-58
2021/06/13 00:54:19;;;;;;;0.00;0.00;;;14.70;99.90;;;;;;5073049;28;20031;-58
2021/06/13 00:56:45;;;;;;;0.00;0.00;;;14.70;99.90;;;;;;5073520;28;20063;-58
2021/06/13 00:59:11;;;;;;;0.00;0.00;;;14.70;99.90;;;;;;5073427;28;20035;-58
2021/06/13 01:01:37;;;;;;;0.00;0.00;;;14.70;99.90;;;;;;5073596;28;20060;-58
2021/06/13 01:04:03;;;;;;;0.00;0.00;;;14.60;99.90;;;;;;5073813;28;20043;-57
2021/06/13 01:06:40;;;;;;;0.00;0.00;;;14.60;99.90;;;;;;5072394;28;20032;-58
2021/06/13 01:09:14;;;;;;;0.00;0.00;;;14.50;99.90;;;;;;5074079;28;20028;-58
2021/06/13 01:11:53;;;;;;;0.00;0.00;;;14.50;99.90;;;;;;5072496;28;20029;-57
2021/06/13 01:14:29;;;;;;;0.00;0.00;;;14.50;99.90;;;;;;5073684;28;20017;-58
2021/06/13 01:17:09;;;;;;;0.00;0.00;;;14.50;99.90;;;;;;5052877;28;20368;-57
2021/06/13 01:20:03;;;;;;;0.00;0.00;;;14.50;99.90;;;;;;5072845;28;20119;-58
2021/06/13 01:22:39;;;;;;;0.00;0.00;;;14.40;99.90;;;;;;5059875;28;20039;-57
2021/06/13 01:25:49;;;;;;;0.10;0.10;;;14.40;99.90;;;;;;5073232;28;20622;-58
2021/06/13 01:28:52;;;;;;;0.00;0.00;;;14.40;99.90;;;;;;5072629;28;20605;-57
2021/06/13 01:31:21;;;;;;;0.10;0.10;;;14.30;99.90;;;;;;5072170;28;20024;-57
2021/06/13 01:33:52;;;;;;;0.00;0.00;;;14.30;99.90;;;;;;5073331;28;20107;-58
2021/06/13 01:36:19;;;;;;;0.00;0.00;;;14.20;99.90;;;;;;5072944;28;20020;-57
2021/06/13 01:38:46;;;;;;;0.00;0.00;;;14.30;99.90;;;;;;5073282;28;20040;-57
2021/06/13 01:41:16;;;;;;;0.00;0.00;;;14.20;99.90;;;;;;5072744;28;20101;-57
2021/06/13 01:43:43;;;;;;;0.00;0.00;;;14.20;99.90;;;;;;5072558;28;20028;-58
2021/06/13 01:46:11;;;;;;;0.00;0.00;;;14.20;99.90;;;;;;5072774;28;20020;-58
2021/06/13 01:48:39;;;;;;;0.00;0.00;;;14.20;99.90;;;;;;5073756;28;20029;-58
2021/06/13 01:51:07;;;;;;;0.10;0.10;;;14.10;99.90;;;;;;5072532;28;20472;-58
2021/06/13 01:53:41;;;;;;;0.00;0.00;;;14.10;99.90;;;;;;5072446;28;20028;-58
2021/06/13 01:56:10;;;;;;;0.00;0.00;;;14.10;99.90;;;;;;5073136;28;20823;-58
2021/06/13 01:58:37;;;;;;;0.00;0.00;;;14.10;99.90;;;;;;5073677;28;20105;-57
2021/06/13 02:01:07;;;;;;;0.00;0.00;;;14.00;99.90;;;;;;5088510;27;20074;-58
2021/06/13 02:03:35;;;;;;;0.00;0.00;;;14.00;99.90;;;;;;5072937;28;20452;-57
2021/06/13 02:06:02;;;;;;;0.00;0.00;;;14.00;99.90;;;;;;5072485;28;20088;-57
2021/06/13 02:08:32;;;;;;;0.00;0.00;;;14.00;99.90;;;;;;5088201;27;20116;-58
2021/06/13 02:10:58;;;;;;;0.00;0.00;;;14.00;99.90;;;;;;5072255;28;20036;-57
2021/06/13 02:13:27;;;;;;;0.10;0.10;;;14.00;99.90;;;;;;5071944;28;20506;-58
2021/06/13 02:16:00;;;;;;;0.00;0.00;;;14.00;99.90;;;;;;5073469;28;20525;-57
2021/06/13 02:18:27;;;;;;;0.10;0.10;;;14.00;99.90;;;;;;5072669;28;20044;-57
2021/06/13 02:20:55;;;;;;;0.00;0.00;;;13.90;99.90;;;;;;5087433;27;21762;-58
2021/06/13 02:23:24;;;;;;;0.00;0.00;;;13.90;99.90;;;;;;5072628;28;20036;-58
2021/06/13 02:25:52;;;;;;;0.00;0.00;;;14.00;99.90;;;;;;5071663;28;20039;-57
2021/06/13 02:28:25;;;;;;;0.00;0.00;;;13.90;99.90;;;;;;5058720;28;20042;-58
2021/06/13 02:30:55;;;;;;;0.00;0.00;;;13.80;99.90;;;;;;5070817;28;20064;-57
2021/06/13 02:33:22;;;;;;;0.00;0.00;;;13.70;99.90;;;;;;5071409;28;20561;-58
2021/06/13 02:35:52;;;;;;;0.00;0.00;;;13.70;99.90;;;;;;5057503;28;20032;-58
2021/06/13 02:38:18;;;;;;;0.00;0.00;;;13.70;99.90;;;;;;5057973;28;20043;-58
2021/06/13 02:40:49;;;;;;;0.00;0.00;;;13.60;99.90;;;;;;5071881;28;20055;-58
2021/06/13 02:43:15;;;;;;;0.00;0.00;;;13.60;99.90;;;;;;5071575;28;22213;-57
2021/06/13 02:45:41;;;;;;;0.57;0.57;;;13.60;99.90;;;;;;5071818;28;20031;-58
2021/06/13 02:48:07;;;;;;;0.03;0.03;;;13.60;99.90;;;;;;5071290;28;20458;-57
2021/06/13 02:50:38;;;;;;;0.00;0.00;;;13.60;99.90;;;;;;5072344;28;20110;-57
2021/06/13 02:53:23;;;;;;;0.00;0.00;;;13.60;99.90;;;;;;5072383;28;20082;-57
2021/06/13 02:56:00;;;;;;;0.00;0.00;;;13.60;99.90;;;;;;5072062;28;20075;-58
2021/06/13 02:58:37;;;;;;;0.00;0.00;;;13.60;99.90;;;;;;5084785;28;20051;-57
2021/06/13 03:01:06;;;;;;;0.10;0.10;;;13.60;99.90;;;;;;5071453;28;20066;-57
2021/06/13 03:03:33;;;;;;;0.00;0.00;;;13.50;99.90;;;;;;5071214;28;20568;-57
2021/06/13 03:06:00;;;;;;;0.00;0.00;;;13.50;99.90;;;;;;5070438;28;20036;-57
2021/06/13 03:08:25;;;;;;;0.00;0.00;;;13.40;99.90;;;;;;5072716;28;20064;-57
2021/06/13 03:10:53;;;;;;;0.10;0.10;;;13.40;99.90;;;;;;5071034;28;20158;-57
2021/06/13 03:13:23;;;;;;;0.00;0.00;;;13.40;99.90;;;;;;5055372;28;20035;-57
2021/06/13 03:15:52;;;;;;;0.00;0.00;;;13.40;99.90;;;;;;5071623;28;20031;-57
2021/06/13 03:18:19;;;;;;;0.00;0.00;;;13.50;99.90;;;;;;5057464;28;20032;-57
2021/06/13 03:20:45;;;;;;;0.00;0.00;;;13.40;99.90;;;;;;5073710;28;20036;-57
2021/06/13 03:23:12;;;;;;;0.00;0.00;;;13.40;99.90;;;;;;5075899;28;20028;-58
2021/06/13 03:25:38;;;;;;;0.10;0.10;;;13.40;99.90;;;;;;5074773;28;20151;-58
2021/06/13 03:28:08;;;;;;;0.10;0.10;;;13.40;99.90;;;;;;5075559;28;20033;-57
2021/06/13 03:30:36;;;;;;;5.90;5.47;;;13.40;99.90;;;;;;5091721;27;20043;-58
2021/06/13 03:33:04;;;;;;;0.10;0.10;;;13.40;99.90;;;;;;5075993;28;20032;-57
2021/06/13 03:35:32;;;;;;;0.00;0.00;;;13.30;99.90;;;;;;5075214;28;20112;-57
2021/06/13 03:37:58;;;;;;;0.10;0.10;;;13.30;99.90;;;;;;5075220;28;20386;-57
2021/06/13 03:40:26;;;;;;;0.00;0.00;;;13.20;99.90;;;;;;5073556;28;20501;-58
2021/06/13 03:42:52;;;;;;;0.00;0.00;;;13.20;99.90;;;;;;5090203;27;20448;-57
2021/06/13 03:45:23;;;;;;;0.00;0.00;;;13.20;99.90;;;;;;5091335;27;20036;-58
2021/06/13 03:47:50;;;;;;;0.10;0.10;;;13.10;99.90;;;;;;5074254;28;20036;-58
2021/06/13 03:50:20;;;;;;;0.10;0.10;;;13.10;99.90;;;;;;5074558;28;20108;-58
2021/06/13 03:52:48;;;;;;;0.03;0.03;;;13.10;99.90;;;;;;5074853;28;20106;-57
2021/06/13 03:55:14;;;;;;;0.00;0.00;;;13.00;99.90;;;;;;5074445;28;20459;-57
2021/06/13 03:57:47;;;;;;;0.10;0.10;;;13.10;99.90;;;;;;5057558;28;20196;-58
2021/06/13 04:00:15;;;;;;;0.10;0.10;;;13.10;99.90;;;;;;5060813;28;20044;-58
2021/06/13 04:02:47;;;;;;;0.10;0.10;;;13.10;99.90;;;;;;5074439;28;20041;-58
2021/06/13 04:05:15;;;;;;;0.10;0.10;;;13.20;99.90;;;;;;5073862;28;20529;-58
2021/06/13 04:07:46;;;;;;;0.10;0.10;;;13.20;99.90;;;;;;5064864;28;20043;-57
2021/06/13 04:10:13;;;;;;;0.10;0.10;;;13.20;99.90;;;;;;5073466;28;20075;-57
2021/06/13 04:12:40;;;;;;;0.00;0.00;;;13.30;99.90;;;;;;5091182;27;20084;-57
2021/06/13 04:15:11;;;;;;;0.10;0.10;;;13.30;99.90;;;;;;5060455;28;20650;-58
2021/06/13 04:17:41;;;;;;;0.10;0.10;;;13.20;99.90;;;;;;5074437;28;20044;-57
2021/06/13 04:20:11;;;;;;;0.10;0.10;;;13.20;99.90;;;;;;5074842;28;20032;-57
2021/06/13 04:22:41;;;;;;;0.10;0.10;;;13.20;99.90;;;;;;5073641;28;20032;-57
2021/06/13 04:25:13;;;;;;;0.10;0.10;;;13.20;99.90;;;;;;5074913;28;20041;-57
2021/06/13 04:27:40;;;;;;;0.10;0.10;;;13.30;99.90;;;;;;5073736;28;20032;-58
2021/06/13 04:30:09;;;;;;;0.00;0.00;;;13.30;99.90;;;;;;5089553;27;20123;-57
2021/06/13 04:32:38;;;;;;;0.00;0.00;;;13.40;99.90;;;;;;5073319;28;20465;-59
2021/06/13 04:35:04;;;;;;;0.00;0.00;;;13.50;99.90;;;;;;5072936;28;20024;-57
2021/06/13 04:37:32;;;;;;;0.00;0.00;;;13.50;99.90;;;;;;5073650;28;20104;-58
2021/06/13 04:39:58;;;;;;;0.00;0.00;;;13.50;99.90;;;;;;5090123;27;20035;-57
2021/06/13 04:42:26;;;;;;;0.00;0.00;;;13.60;99.90;;;;;;5073921;28;20036;-58
2021/06/13 04:44:52;;;;;;;0.00;0.00;;;13.60;99.90;;;;;;5089864;27;20031;-57
2021/06/13 04:47:20;;;;;;;0.00;0.00;;;13.60;99.90;;;;;;5073599;28;20071;-57
2021/06/13 04:49:48;;;;;;;0.00;0.00;;;13.70;99.90;;;;;;5074525;28;20952;-57
2021/06/13 04:52:21;;;;;;;0.00;0.00;;;13.80;99.90;;;;;;5074117;28;20139;-57
2021/06/13 04:54:51;;;;;;;;;;;13.80;99.90;;;;;;5074701;28;20033;-57
2021/06/13 04:57:49;;;;;;;0.00;0.00;;;13.90;99.90;;;;;;5056472;28;19916;-57
2021/06/13 05:00:14;;;;;;;0.00;0.00;;;14.00;99.90;;;;;;5073370;28;20037;-57
2021/06/13 05:02:41;;;;;;;0.10;0.10;;;14.10;99.90;;;;;;5073909;28;20050;-57
2021/06/13 05:05:07;;;;;;;0.00;0.00;;;14.20;99.90;;;;;;5073665;28;20452;-58
2021/06/13 05:07:37;;;;;;;0.00;0.00;;;14.20;99.90;;;;;;5090201;27;20381;-58
2021/06/13 05:10:05;;;;;;;0.00;0.00;;;14.30;99.90;;;;;;5073397;28;20346;-57
2021/06/13 05:12:45;;;;;;;0.00;0.00;;;14.30;99.90;;;;;;5072681;28;20116;-58
2021/06/13 05:15:14;;;;;;;0.00;0.00;;;14.30;99.90;;;;;;5074028;28;20376;-58
2021/06/13 05:17:39;;;;;;;0.00;0.00;;;14.40;99.90;;;;;;5073290;28;20031;-58
2021/06/13 05:20:06;;;;;;;0.00;0.00;;;14.40;99.90;;;;;;5054602;28;20574;-57
2021/06/13 05:22:31;;;;;;;0.00;0.00;;;14.40;99.90;;;;;;5073253;28;20054;-57
2021/06/13 05:24:57;;;;;;;0.00;0.00;;;14.50;99.90;;;;;;5073205;28;20453;-58
2021/06/13 05:27:23;;;;;;;0.00;0.00;;;14.50;99.90;;;;;;5060363;28;20039;-57
2021/06/13 05:29:51;;;;;;;0.00;0.00;;;14.60;99.90;;;;;;5073481;28;20474;-58
2021/06/13 05:32:16;;;;;;;0.00;0.00;;;14.60;99.90;;;;;;5073290;28;20051;-58
2021/06/13 05:34:42;;;;;;;0.00;0.00;;;14.60;99.90;;;;;;5072906;28;20449;-57
2021/06/13 05:37:07;;;;;;;0.00;0.00;;;14.70;99.90;;;;;;5064001;28;20032;-58
2021/06/13 05:39:33;;;;;;;0.00;0.00;;;14.80;99.90;;;;;;5073140;28;20086;-57
2021/06/13 05:41:59;;;;;;;0.00;0.00;;;14.80;99.90;;;;;;5087702;27;20470;-57
2021/06/13 05:44:24;;;;;;;0.00;0.00;;;14.90;99.90;;;;;;5054157;28;20047;-57
2021/06/13 05:46:50;;;;;;;0.00;0.00;;;14.90;99.90;;;;;;5071813;28;20871;-58
2021/06/13 05:49:15;;;;;;;0.00;0.00;;;15.00;99.90;;;;;;5071896;28;20464;-58
2021/06/13 05:51:41;;;;;;;0.00;0.00;;;15.00;99.90;;;;;;5057971;28;20035;-57
2021/06/13 05:54:07;;;;;;;0.00;0.00;;;15.00;99.90;;;;;;5071646;28;20035;-58
2021/06/13 05:56:34;;;;;;;0.00;0.00;;;15.10;99.90;;;;;;5072845;28;20056;-57
2021/06/13 05:58:59;;;;;;;0.00;0.00;;;15.20;99.90;;;;;;5073145;28;20817;-57
2021/06/13 06:01:30;;;;;;;0.00;0.00;;;15.20;99.90;;;;;;5059240;28;20044;-58
2021/06/13 06:03:55;;;;;;;0.00;0.00;;;15.30;99.90;;;;;;5053053;28;20084;-57
2021/06/13 06:06:21;;;;;;;0.00;0.00;;;15.30;99.90;;;;;;5084230;27;20568;-58
2021/06/13 06:08:46;;;;;;;0.00;0.00;;;15.40;99.90;;;;;;5051530;28;20467;-57
2021/06/13 06:11:12;;;;;;;0.00;0.00;;;15.40;99.90;;;;;;5052496;28;20484;-58
2021/06/13 06:13:38;;;;;;;0.00;0.00;;;15.50;99.90;;;;;;5052784;28;20037;-58
2021/06/13 06:16:06;;;;;;;0.00;0.00;;;15.60;99.90;;;;;;5050411;28;20461;-58
2021/06/13 06:18:34;;;;;;;0.00;0.00;;;15.70;99.90;;;;;;5052392;28;20040;-58
2021/06/13 06:20:59;;;;;;;0.00;0.00;;;15.80;99.90;;;;;;5052720;28;20040;-57
2021/06/13 06:23:25;;;;;;;0.00;0.00;;;15.80;99.90;;;;;;5051407;28;21967;-58
2021/06/13 06:25:51;;;;;;;0.00;0.00;;;15.90;99.90;;;;;;5051807;28;20029;-59
2021/06/13 06:28:16;;;;;;;0.00;0.00;;;15.90;99.70;;;;;;5052137;28;20105;-58
2021/06/13 06:30:43;;;;;;;0.00;0.00;;;16.00;98.70;;;;;;5053677;28;20037;-62
2021/06/13 06:33:09;;;;;;;0.00;0.00;;;15.90;98.90;;;;;;5048350;28;20027;-57
2021/06/13 06:35:34;;;;;;;0.00;0.00;;;16.00;99.40;;;;;;5051747;28;20050;-57
2021/06/13 06:38:02;;;;;;;0.07;0.07;;;16.00;99.20;;;;;;5051279;28;20037;-58
2021/06/13 06:40:28;;;;;;;0.00;0.00;;;16.10;98.70;;;;;;5086093;27;20032;-58
2021/06/13 06:42:54;;;;;;;0.00;0.00;;;16.20;98.50;;;;;;5052294;28;20047;-57
2021/06/13 06:45:20;;;;;;;0.00;0.00;;;16.10;97.90;;;;;;5084853;28;20032;-58
2021/06/13 06:47:48;;;;;;;0.00;0.00;;;16.10;97.90;;;;;;5083214;27;20090;-57
2021/06/13 06:50:17;;;;;;;0.00;0.00;;;16.10;98.30;;;;;;5052375;28;20033;-58
2021/06/13 06:52:43;;;;;;;0.00;0.00;;;16.10;97.90;;;;;;5051011;28;20029;-58
2021/06/13 06:55:14;;;;;;;0.00;0.00;;;16.20;98.10;;;;;;5051119;28;20074;-57
2021/06/13 06:57:46;;;;;;;0.00;0.00;;;16.10;98.60;;;;;;5052270;28;20044;-58
2021/06/13 07:00:13;;;;;;;0.03;0.03;;;16.30;97.40;;;;;;5085832;28;20483;-57
2021/06/13 07:02:41;;;;;;;0.07;0.07;;;16.30;95.30;;;;;;5074649;28;20027;-58
2021/06/13 07:05:10;;;;;;;0.00;0.00;;;16.40;95.30;;;;;;5070460;28;20044;-58
2021/06/13 07:07:38;;;;;;;0.00;0.00;;;16.40;95.00;;;;;;5071687;28;20101;-58
2021/06/13 07:10:09;;;;;;;0.00;0.00;;;16.50;94.30;;;;;;5072087;28;20028;-58
2021/06/13 07:12:37;;;;;;;0.00;0.00;;;16.40;93.90;;;;;;5046130;28;21255;-58
2021/06/13 07:15:06;;;;;;;0.00;0.00;;;16.50;94.00;;;;;;5071225;28;20021;-58
2021/06/13 07:17:37;;;;;;;0.00;0.00;;;16.60;93.60;;;;;;5070299;28;20044;-57
2021/06/13 07:20:07;;;;;;;0.00;0.00;;;16.60;92.90;;;;;;5071406;28;20088;-58
2021/06/13 07:22:33;;;;;;;0.00;0.00;;;16.60;92.80;;;;;;5071121;28;20047;-57
2021/06/13 07:25:00;;;;;;;0.00;0.00;;;16.60;93.00;;;;;;5072075;28;20102;-57
2021/06/13 07:27:27;;;;;;;0.00;0.00;;;16.70;93.20;;;;;;5072156;28;20033;-57
2021/06/13 07:29:53;;;;;;;0.00;0.00;;;16.90;93.00;;;;;;5071779;28;20028;-58
2021/06/13 07:32:18;;;;;;;0.00;0.00;;;17.00;92.90;;;;;;5053712;28;20615;-60
2021/06/13 07:34:44;;;;;;;0.00;0.00;;;17.10;91.40;;;;;;5071026;28;20115;-58
2021/06/13 07:37:10;;;;;;;0.00;0.00;;;17.10;91.40;;;;;;5071762;28;20028;-58
2021/06/13 07:39:36;;;;;;;0.00;0.00;;;17.20;91.20;;;;;;5071605;28;20125;-58
2021/06/13 07:42:03;;;;;;;0.10;0.10;;;17.20;90.70;;;;;;5071317;28;20107;-58
2021/06/13 07:44:30;;;;;;;0.00;0.00;;;17.10;90.50;;;;;;5071484;28;20035;-58
2021/06/13 07:46:57;;;;;;;0.00;0.00;;;17.10;90.50;;;;;;5072269;28;20432;-58
2021/06/13 07:49:25;;;;;;;0.00;0.00;;;17.10;90.30;;;;;;5071974;28;20031;-58
2021/06/13 07:51:52;;;;;;;0.00;0.00;;;17.20;90.70;;;;;;5072562;28;20027;-58
2021/06/13 07:54:19;;;;;;;0.00;0.00;;;17.20;91.10;;;;;;5061941;28;20046;-57
2021/06/13 07:56:48;;;;;;;0.00;0.00;;;17.20;89.70;;;;;;5057268;28;20036;-58
2021/06/13 07:59:14;;;;;;;0.00;0.00;;;17.30;90.60;;;;;;5056210;28;20035;-58
2021/06/13 08:01:40;;;;;;;0.00;0.00;;;17.30;89.20;;;;;;5086299;28;20059;-58
2021/06/13 08:04:05;;;;;;;0.10;0.10;;;17.40;90.00;;;;;;5071511;28;20028;-58
2021/06/13 08:06:33;;;;;;;0.05;0.05;;;17.50;89.60;;;;;;5070920;28;20025;-58
2021/06/13 08:09:01;;;;;;;0.00;0.00;;;17.40;89.20;;;;;;5073708;28;20020;-58
2021/06/13 08:11:30;;;;;;;0.10;0.10;;;17.40;89.90;;;;;;5074509;28;20437;-58
2021/06/13 08:13:58;;;;;;;0.00;0.00;;;17.50;90.50;;;;;;5060700;28;20471;-59
2021/06/13 08:16:26;;;;;;;0.00;0.00;;;17.60;90.00;;;;;;5074993;28;20024;-58
2021/06/13 08:18:52;;;;;;;0.00;0.00;;;17.70;89.40;;;;;;5074297;28;20055;-58
2021/06/13 08:21:22;;;;;;;0.00;0.00;;;17.60;88.40;;;;;;5060031;28;20436;-58
2021/06/13 08:23:48;;;;;;;0.00;0.00;;;17.60;90.10;;;;;;5056152;28;20027;-59
2021/06/13 08:26:15;;;;;;;0.05;0.05;;;17.60;90.10;;;;;;5073916;28;20844;-58
2021/06/13 08:28:41;;;;;;;0.00;0.00;;;17.60;88.80;;;;;;5074695;28;20024;-58
2021/06/13 08:31:07;;;;;;;0.00;0.00;;;17.60;89.90;;;;;;5074992;28;20028;-58
2021/06/13 08:33:35;;;;;;;0.00;0.00;;;17.70;90.00;;;;;;5074595;28;20024;-60
2021/06/13 08:36:00;;;;;;;0.05;0.05;;;17.80;90.30;;;;;;5074037;28;20051;-58
2021/06/13 08:38:27;;;;;;;0.08;0.08;;;17.90;89.30;;;;;;5073338;28;20107;-58
2021/06/13 08:40:52;;;;;;;0.00;0.00;;;17.90;88.30;;;;;;5089684;27;20024;-58
2021/06/13 08:43:19;;;;;;;0.00;0.00;;;17.90;88.70;;;;;;5064435;28;20028;-57
2021/06/13 08:45:48;;;;;;;0.00;0.00;;;18.00;88.20;;;;;;5091003;27;20028;-58
2021/06/13 08:48:14;;;;;;;0.10;0.10;;;18.00;88.30;;;;;;5073970;28;20069;-58
2021/06/13 08:50:41;;;;;;;0.10;0.10;;;18.10;86.50;;;;;;5064396;28;20023;-58
2021/06/13 08:53:10;;;;;;;0.00;0.00;;;18.00;85.70;;;;;;5073138;28;20024;-59
2021/06/13 08:55:36;;;;;;;0.00;0.00;;;17.90;87.10;;;;;;5059278;28;20445;-58
2021/06/13 08:58:05;;;;;;;0.00;0.00;;;18.00;86.90;;;;;;5089182;27;20047;-58
2021/06/13 09:00:32;;;;;;;0.10;0.10;;;18.00;84.80;;;;;;5056207;28;20499;-59
2021/06/13 09:03:02;;;;;;;0.10;0.10;;;17.90;86.00;;;;;;5072863;28;20032;-60
2021/06/13 09:05:30;;;;;;;0.10;0.10;;;17.90;87.10;;;;;;5073995;28;20089;-61
2021/06/13 09:08:01;;;;;;;0.10;0.10;;;18.10;85.50;;;;;;5073638;28;20689;-60
2021/06/13 09:10:31;;;;;;;0.00;0.00;;;18.10;84.90;;;;;;5073732;28;20062;-60
2021/06/13 09:13:16;;;;;;;0.10;0.10;;;18.20;84.60;;;;;;5072767;28;20433;-60
2021/06/13 09:15:46;;;;;;;0.00;0.00;;;18.10;84.40;;;;;;5073647;28;20024;-61
2021/06/13 09:18:41;;;;;;;0.00;0.00;;;18.10;84.70;;;;;;5072256;28;20094;-61
2021/06/13 09:21:29;;;;;;;0.03;0.03;;;18.10;84.70;;;;;;5074425;28;20079;-60
2021/06/13 09:23:55;;;;;;;0.10;0.10;;;18.20;83.00;;;;;;5055665;28;20606;-60
2021/06/13 09:26:26;;;;;;;0.00;0.00;;;18.20;80.40;;;;;;5054909;28;20039;-60
2021/06/13 09:28:56;;;;;;;0.10;0.10;;;18.20;81.40;;;;;;5088693;27;20037;-61
2021/06/13 09:31:30;;;;;;;0.10;0.10;;;18.30;80.00;;;;;;5072941;28;20035;-60
2021/06/13 09:34:00;;;;;;;0.10;0.10;;;18.30;80.40;;;;;;5088253;27;20361;-61
2021/06/13 09:36:30;;;;;;;0.00;0.00;;;18.30;80.90;;;;;;5073710;28;20033;-61
2021/06/13 09:39:16;;;;;;;0.03;0.03;;;18.20;79.70;;;;;;5073404;28;20479;-61
2021/06/13 09:41:44;;;;;;;0.10;0.10;;;18.20;80.90;;;;;;5071846;28;20594;-61
2021/06/13 09:44:19;;;;;;;0.00;0.00;;;18.30;81.60;;;;;;5072544;28;20107;-61
2021/06/13 09:46:50;;;;;;;0.00;0.00;;;18.40;80.40;;;;;;5089329;27;20166;-60
2021/06/13 09:49:20;;;;;;;0.00;0.00;;;18.50;79.40;;;;;;5072242;28;20129;-60
2021/06/13 09:51:50;;;;;;;0.00;0.00;;;18.60;77.30;;;;;;5073068;28;20028;-60
2021/06/13 09:54:24;;;;;;;0.00;0.00;;;18.50;76.50;;;;;;5071998;28;20042;-60
2021/06/13 09:56:53;;;;;;;0.32;0.32;;;18.60;77.50;;;;;;5072787;28;20032;-60
2021/06/13 09:59:27;;;;;;;0.03;0.03;;;18.60;75.80;;;;;;5072184;28;20028;-60
2021/06/13 10:01:53;;;;;;;0.10;0.10;;;18.50;75.70;;;;;;5071735;28;20396;-60
2021/06/13 10:04:19;;;;;;;0.00;0.00;;;18.50;77.50;;;;;;5073564;28;20032;-60
2021/06/13 10:06:53;;;;;;;0.10;0.10;;;18.60;76.20;;;;;;5072508;28;20032;-60
2021/06/13 10:09:23;;;;;;;0.10;0.10;;;18.70;77.50;;;;;;5072099;28;20036;-60
2021/06/13 10:11:50;;;;;;;0.10;0.10;;;18.90;76.30;;;;;;5072318;28;20073;-60
2021/06/13 10:14:17;;;;;;;0.10;0.10;;;19.00;74.90;;;;;;5071925;28;20050;-60
2021/06/13 10:16:52;;;;;;;0.08;0.08;;;19.10;75.30;;;;;;5072616;28;20043;-60
2021/06/13 10:19:25;;;;;;;0.10;0.10;;;19.00;76.20;;;;;;5071681;28;20356;-61
2021/06/13 10:22:01;;;;;;;0.10;0.10;;;19.10;74.90;;;;;;5088922;27;20028;-61
2021/06/13 10:24:30;;;;;;;0.10;0.10;;;19.10;74.20;;;;;;5071768;28;20038;-60
2021/06/13 10:27:08;;;;;;;0.00;0.00;;;19.10;72.60;;;;;;5073127;28;20381;-60
2021/06/13 10:29:36;;;;;;;0.10;0.10;;;19.10;71.80;;;;;;5068343;28;20039;-60
2021/06/13 10:32:07;;;;;;;0.08;0.08;;;19.20;71.60;;;;;;5072696;28;20032;-60
2021/06/13 10:34:36;;;;;;;0.10;0.10;;;19.20;71.90;;;;;;5058267;28;20032;-60
2021/06/13 10:37:05;;;;;;;0.00;0.00;;;19.30;70.60;;;;;;5071624;28;20043;-60
2021/06/13 10:39:37;;;;;;;0.10;0.10;;;19.50;71.00;;;;;;5087754;27;20037;-60
2021/06/13 10:42:09;;;;;;;0.10;0.10;;;19.50;68.70;;;;;;5088066;27;20475;-60
2021/06/13 10:44:48;;;;;;;0.00;0.00;;;19.60;68.90;;;;;;5068838;28;20449;-60
2021/06/13 10:47:16;;;;;;;0.00;0.00;;;19.70;68.00;;;;;;5071645;28;20555;-60
2021/06/13 10:49:46;;;;;;;0.10;0.10;;;19.60;66.30;;;;;;5063000;28;20032;-60
2021/06/13 10:52:23;;;;;;;0.00;0.00;;;19.70;66.60;;;;;;5072203;28;20030;-60
2021/06/13 10:54:52;;;;;;;0.00;0.00;;;19.70;67.50;;;;;;5071417;28;20518;-60
2021/06/13 10:57:17;;;;;;;0.10;0.10;;;19.70;67.70;;;;;;5071884;28;20035;-60
2021/06/13 10:59:46;;;;;;;0.10;0.10;;;19.80;66.80;;;;;;5070655;28;20059;-60
2021/06/13 11:02:14;;;;;;;0.10;0.10;;;19.80;67.30;;;;;;5072062;28;20051;-60
2021/06/13 11:04:43;;;;;;;0.10;0.10;;;19.90;68.40;;;;;;5072450;28;20044;-60
2021/06/13 11:07:11;;;;;;;0.00;0.00;;;20.20;67.10;;;;;;5071705;28;20118;-60
2021/06/13 11:10:05;;;;;;;0.00;0.00;;;20.30;67.10;;;;;;5071493;28;20057;-60
2021/06/13 11:12:47;;;;;;;0.00;0.00;;;20.30;65.80;;;;;;5072104;28;20021;-60
2021/06/13 11:15:39;;;;;;;0.00;0.00;;;20.40;67.10;;;;;;5071836;28;20486;-60
2021/06/13 11:18:25;;;;;;;0.05;0.05;;;20.40;65.80;;;;;;5070290;28;20025;-60
2021/06/13 11:23:34;;;;;;;0.00;0.00;;;20.50;64.60;;;;;;5071961;28;20119;-60
2021/06/13 11:26:02;;;;;;;0.00;0.00;;;20.50;63.50;;;;;;5070588;28;20115;-60
2021/06/13 11:28:34;;;;;;;0.10;0.10;;;20.60;65.70;;;;;;5061877;28;20160;-60
2021/06/13 11:31:22;;;;;;;0.00;0.00;;;20.80;63.50;;;;;;5070959;28;20139;-60
2021/06/13 11:33:49;;;;;;;0.00;0.00;;;21.00;62.90;;;;;;5071022;28;20092;-60
2021/06/13 11:36:18;;;;;;;0.00;0.00;;;21.20;62.10;;;;;;5070696;28;20136;-60
2021/06/13 11:39:16;;;;;;;0.00;0.00;;;21.80;59.90;;;;;;5067660;28;20037;-61
2021/06/13 11:41:44;;;;;;;0.00;0.00;;;22.90;58.50;;;;;;5072596;28;20075;-61
2021/06/13 11:44:32;;;;;;;0.00;0.00;;;24.40;56.00;;;;;;5074783;28;20056;-61
2021/06/13 11:47:17;;;;;;;0.00;0.00;;;25.70;53.70;;;;;;5074563;28;20139;-61
2021/06/13 11:49:47;;;;;;;0.00;0.00;;;27.30;50.90;;;;;;5062656;28;21879;-62
2021/06/13 11:52:18;;;;;;;0.00;0.00;;;28.10;48.10;;;;;;5077079;28;20106;-63
2021/06/13 11:54:50;;;;;;;0.00;0.00;;;27.90;48.00;;;;;;5059932;28;20094;-61
2021/06/13 11:57:15;;;;;;;0.03;0.03;;;28.10;46.50;;;;;;5074633;28;20028;-61
2021/06/13 11:59:46;;;;;;;0.00;0.00;;;28.10;45.30;;;;;;5060365;28;20354;-61
2021/06/13 12:02:18;;;;;;;0.00;0.00;;;28.40;45.10;;;;;;5074068;28;20101;-59
2021/06/13 12:04:45;;;;;;;0.00;0.00;;;29.10;44.00;;;;;;5075200;28;20039;-60
2021/06/13 12:07:17;;;;;;;0.00;0.00;;;29.60;43.60;;;;;;5075729;28;20036;-60
2021/06/13 12:09:48;;;;;;;0.00;0.00;;;29.80;41.90;;;;;;5074252;28;20040;-61
2021/06/13 12:12:14;;;;;;;0.00;0.00;;;30.60;41.50;;;;;;5075443;28;20038;-60
2021/06/13 12:14:41;;;;;;;0.00;0.00;;;31.40;41.80;;;;;;5074010;28;20381;-60
2021/06/13 12:17:26;;;;;;;0.00;0.00;;;31.90;40.90;;;;;;5073924;28;20025;-59
2021/06/13 12:20:04;;;;;;;0.00;0.00;;;31.00;43.00;;;;;;5074154;28;20029;-60
2021/06/13 12:27:39;;;;;;;0.08;0.08;;;31.60;41.80;;;;;;5074950;28;20024;-59
2021/06/13 12:30:18;;;;;;;0.10;0.10;;;31.50;41.60;;;;;;5073781;28;20024;-60
2021/06/13 12:32:56;;;;;;;0.00;0.00;;;31.30;41.90;;;;;;5074285;28;20102;-60
2021/06/13 12:35:26;;;;;;;0.10;0.10;;;30.50;42.70;;;;;;5074022;28;20025;-59
2021/06/13 12:38:11;;;;;;;0.57;0.57;;;31.20;41.20;;;;;;5073005;28;20051;-60
2021/06/13 12:40:42;;;;;;;0.00;0.00;;;30.70;41.00;;;;;;5075103;28;20047;-60
2021/06/13 12:43:10;;;;;;;0.03;0.03;;;30.80;41.30;;;;;;5073027;28;20024;-60
2021/06/13 12:45:40;;;;;;;0.00;0.00;;;31.60;41.60;;;;;;5073906;28;20040;-61
2021/06/13 12:48:12;;;;;;;0.00;0.00;;;32.40;40.40;;;;;;5074607;28;20059;-60
2021/06/13 12:50:40;;;;;;;0.00;0.00;;;32.50;39.60;;;;;;5073620;28;20094;-60
2021/06/13 12:53:07;;;;;;;0.00;0.00;;;32.50;39.40;;;;;;5073529;28;20032;-60
2021/06/13 12:55:37;;;;;;;0.00;0.00;;;32.90;38.90;;;;;;5074302;28;20024;-60
2021/06/13 12:58:06;;;;;;;0.00;0.00;;;33.30;38.30;;;;;;5073185;28;20028;-60
2021/06/13 13:00:34;;;;;;;0.00;0.00;;;33.50;37.40;;;;;;5073418;28;20037;-59
2021/06/13 13:03:10;;;;;;;0.00;0.00;;;34.40;36.70;;;;;;5074342;28;20092;-61
2021/06/13 13:05:40;;;;;;;0.00;0.00;;;34.70;37.20;;;;;;5063975;28;20047;-60
2021/06/13 13:08:20;;;;;;;0.00;0.00;;;35.50;36.10;;;;;;5073540;28;20492;-60